createdAt,value
2018-01-18T00:01:58.000Z,36.875
2018-01-18T00:11:58.000Z,36.656
2018-01-18T00:21:58.000Z,36.709
2018-01-18T00:31:58.000Z,37.008
2018-01-18T00:41:58.000Z,37.124
2018-01-18T00:51:58.000Z,37.153
2018-01-18T01:01:58.000Z,37.076
2018-01-18T01:11:58.000Z,37.169
2018-01-18T01:21:58.000Z,37.533
2018-01-18T01:31:58.000Z,37.616
2018-01-18T01:41:59.000Z,37.775
2018-01-18T01:51:58.000Z,37.74
2018-01-18T02:01:59.000Z,37.834
2018-01-18T02:11:59.000Z,37.853
2018-01-18T02:21:59.000Z,37.839
2018-01-18T02:31:59.000Z,37.956
2018-01-18T02:41:59.000Z,37.996
2018-01-18T02:51:59.000Z,37.97
2018-01-18T03:01:59.000Z,38
2018-01-18T03:11:59.000Z,38.029
2018-01-18T03:21:59.000Z,38.088
2018-01-18T03:31:59.000Z,38.118
2018-01-18T03:41:59.000Z,37.986
2018-01-18T03:51:59.000Z,37.95
2018-01-18T04:01:59.000Z,37.981
2018-01-18T04:11:59.000Z,38.009
2018-01-18T04:21:59.000Z,38.007
2018-01-18T04:31:59.000Z,38.015
2018-01-18T04:41:59.000Z,38.151
2018-01-18T04:51:59.000Z,38.008
2018-01-18T05:01:59.000Z,38.048
2018-01-18T05:11:59.000Z,38.003
2018-01-18T05:21:59.000Z,37.903
2018-01-18T05:31:59.000Z,37.847
2018-01-18T05:41:59.000Z,37.715
2018-01-18T05:51:59.000Z,37.669
2018-01-18T06:01:59.000Z,37.486
2018-01-18T06:11:59.000Z,37.386
2018-01-18T06:21:59.000Z,37.299
2018-01-18T06:31:59.000Z,36.682
2018-01-18T06:41:59.000Z,36.177
2018-01-18T06:51:59.000Z,36.107
2018-01-18T07:01:59.000Z,36.073
2018-01-18T07:11:59.000Z,36.084
2018-01-18T07:21:59.000Z,36.043
2018-01-18T07:31:59.000Z,36.13
2018-01-18T07:41:59.000Z,35.841
2018-01-18T07:51:59.000Z,35.886
2018-01-18T08:01:59.000Z,35.854
2018-01-18T08:11:59.000Z,37.248
2018-01-18T08:21:59.000Z,37.488
2018-01-18T08:31:59.000Z,37.33
2018-01-18T08:41:59.000Z,37.147
2018-01-18T08:51:59.000Z,36.949
2018-01-18T09:01:59.000Z,37.227
2018-01-18T09:11:59.000Z,37.208
2018-01-18T09:22:00.000Z,37.038
2018-01-18T09:31:59.000Z,36.966
2018-01-18T09:42:00.000Z,36.895
2018-01-18T09:51:59.000Z,36.402
2018-01-18T10:01:59.000Z,36.501
2018-01-18T10:12:00.000Z,36.458
2018-01-18T10:22:00.000Z,36.339
2018-01-18T10:32:00.000Z,36.459
2018-01-18T10:42:00.000Z,36.027
2018-01-18T10:52:00.000Z,36.297
2018-01-18T11:02:00.000Z,36.109
2018-01-18T11:12:00.000Z,37.212
2018-01-18T11:22:00.000Z,37.238
2018-01-18T11:32:00.000Z,37.282
2018-01-18T11:42:00.000Z,37.074
2018-01-18T11:52:00.000Z,36.928
2018-01-18T12:02:00.000Z,36.766
2018-01-18T12:12:00.000Z,36.892
2018-01-18T12:22:00.000Z,36.579
2018-01-18T12:32:00.000Z,36.578
2018-01-18T12:42:00.000Z,36.492
2018-01-18T12:52:00.000Z,36.623
2018-01-18T13:02:00.000Z,36.323
2018-01-18T13:12:00.000Z,36.29
2018-01-18T13:22:00.000Z,36.163
2018-01-18T13:32:00.000Z,36.403
2018-01-18T13:42:00.000Z,36.024
2018-01-18T13:52:00.000Z,36.031
2018-01-18T14:02:00.000Z,35.791
2018-01-18T14:12:00.000Z,35.982
2018-01-18T14:22:00.000Z,36.198
2018-01-18T14:32:00.000Z,36.206
2018-01-18T14:42:00.000Z,36.377
2018-01-18T14:52:01.000Z,36.596
2018-01-18T15:02:00.000Z,36.555
2018-01-18T15:12:00.000Z,36.403
2018-01-18T15:22:00.000Z,36.425
2018-01-18T15:32:00.000Z,36.423
2018-01-18T15:42:00.000Z,36.477
2018-01-18T15:52:00.000Z,36.436
2018-01-18T16:02:00.000Z,36.5
2018-01-18T16:12:00.000Z,36.544
2018-01-18T16:22:00.000Z,36.545
2018-01-18T16:32:00.000Z,36.665
2018-01-18T16:42:00.000Z,36.643
2018-01-18T16:52:00.000Z,36.718
2018-01-18T17:02:00.000Z,36.74
2018-01-18T17:12:00.000Z,36.665
2018-01-18T17:22:00.000Z,36.545
2018-01-18T17:32:02.000Z,36.74
2018-01-18T17:42:00.000Z,36.666
2018-01-18T17:52:00.000Z,36.633
2018-01-18T18:02:00.000Z,36.773
2018-01-18T18:12:00.000Z,36.816
2018-01-18T18:22:01.000Z,36.939
2018-01-18T18:32:01.000Z,36.646
2018-01-18T18:42:01.000Z,36.632
2018-01-18T18:52:01.000Z,36.342
2018-01-18T19:02:01.000Z,36.213
2018-01-18T19:12:01.000Z,36.128
2018-01-18T19:22:01.000Z,35.762
2018-01-18T19:32:01.000Z,35.467
2018-01-18T19:42:01.000Z,35.695
2018-01-18T19:52:01.000Z,35.48
2018-01-18T20:02:01.000Z,35.209
2018-01-18T20:12:01.000Z,35.237
2018-01-18T20:22:01.000Z,35.325
2018-01-18T20:32:01.000Z,35.291
2018-01-18T20:42:01.000Z,35.407
2018-01-18T20:52:01.000Z,35.44
2018-01-18T21:02:01.000Z,35.413
2018-01-18T21:12:02.000Z,35.487
2018-01-18T21:22:01.000Z,35.454
2018-01-18T21:32:01.000Z,35.981
2018-01-18T21:42:01.000Z,35.982
2018-01-18T22:02:01.000Z,35.742
2018-01-18T22:12:01.000Z,35.958
2018-01-18T22:32:01.000Z,35.835
2018-01-18T22:42:01.000Z,36.007
2018-01-18T22:52:01.000Z,35.918
2018-01-18T23:02:01.000Z,35.783
2018-01-18T23:12:01.000Z,35.709
2018-01-18T23:22:01.000Z,35.827
2018-01-18T23:32:01.000Z,35.965
2018-01-18T23:42:02.000Z,35.985
2018-01-18T23:52:01.000Z,36.177
